Time;durP1;ratioP1;P1;durP2;ratioP2;P2;SDS_P1;SDS_P2;PMS_P1;PMS_P2;Temp;Humidity;BMP_temperature;BMP_pressure;BME280_temperature;BME280_humidity;BME280_pressure;Samples;Min_cycle;Max_cycle;Signal;HPM_P1;HPM_P2
2021/03/29 00:00:17;;;;;;;6.37;4.53;;;9.80;93.80;;;;;;5049446;28;20479;-85
2021/03/29 00:02:44;;;;;;;8.37;3.67;;;9.70;93.90;;;;;;5053817;28;20423;-85
2021/03/29 00:05:11;;;;;;;7.60;3.30;;;9.70;94.00;;;;;;5054202;28;20516;-85
2021/03/29 00:07:40;;;;;;;8.77;3.33;;;9.70;94.00;;;;;;5072189;28;20422;-87
2021/03/29 00:10:08;;;;;;;6.07;2.77;;;9.70;94.10;;;;;;5072968;28;20490;-86
2021/03/29 00:12:36;;;;;;;10.73;3.80;;;9.70;94.10;;;;;;5041339;28;20453;-86
2021/03/29 00:15:04;;;;;;;6.60;3.80;;;9.80;94.10;;;;;;5037831;28;21127;-86
2021/03/29 00:17:32;;;;;;;10.70;3.30;;;9.80;94.00;;;;;;5058070;28;20493;-85
2021/03/29 00:19:59;;;;;;;8.73;3.37;;;9.80;94.00;;;;;;5058879;28;20473;-86
2021/03/29 00:22:26;;;;;;;6.17;3.30;;;9.80;93.90;;;;;;5068697;28;20461;-85
2021/03/29 00:24:52;;;;;;;8.63;3.30;;;9.80;93.80;;;;;;5061330;28;20528;-87
2021/03/29 00:27:19;;;;;;;6.90;3.40;;;9.80;94.00;;;;;;5075281;28;20531;-87
2021/03/29 00:29:45;;;;;;;8.07;3.17;;;9.90;93.90;;;;;;5077504;28;20562;-87
2021/03/29 00:32:12;;;;;;;5.50;3.23;;;9.70;93.90;;;;;;5063931;28;21117;-86
2021/03/29 00:34:40;;;;;;;5.10;3.43;;;9.80;94.00;;;;;;5057114;28;20495;-86
2021/03/29 00:37:07;;;;;;;6.90;2.90;;;9.80;93.90;;;;;;5057372;28;20559;-87
2021/03/29 00:39:37;;;;;;;6.53;3.17;;;9.60;93.70;;;;;;5053549;28;20500;-88
2021/03/29 00:42:05;;;;;;;9.37;3.50;;;9.80;93.70;;;;;;5037975;28;20454;-86
2021/03/29 00:44:33;;;;;;;10.00;3.57;;;9.80;93.90;;;;;;5037489;28;20458;-86
2021/03/29 00:46:59;;;;;;;5.97;3.03;;;9.80;93.90;;;;;;5074868;28;20444;-84
2021/03/29 00:49:26;;;;;;;6.23;2.90;;;9.80;94.00;;;;;;5048672;28;20564;-86
2021/03/29 00:51:54;;;;;;;7.27;3.50;;;9.50;94.40;;;;;;5055902;28;20488;-85
2021/03/29 00:54:21;;;;;;;8.20;3.37;;;9.70;94.30;;;;;;5056006;28;20452;-85
2021/03/29 00:56:48;;;;;;;4.90;2.67;;;9.60;94.50;;;;;;5055662;28;20980;-85
2021/03/29 00:59:15;;;;;;;7.60;3.40;;;9.60;94.60;;;;;;5054430;28;20617;-85
2021/03/29 01:01:45;;;;;;;8.87;3.70;;;9.50;94.60;;;;;;5055551;28;20474;-87
2021/03/29 01:04:12;;;;;;;8.20;3.37;;;9.50;94.70;;;;;;5056748;28;20526;-86
2021/03/29 01:06:42;;;;;;;5.13;2.63;;;9.50;94.90;;;;;;5056047;28;20489;-84
2021/03/29 01:09:12;;;;;;;10.83;3.30;;;9.40;95.00;;;;;;5055145;28;20520;-87
2021/03/29 01:11:42;;;;;;;8.20;3.10;;;9.30;94.90;;;;;;5060847;28;20448;-85
2021/03/29 01:14:11;;;;;;;10.37;2.90;;;9.40;94.90;;;;;;5058029;28;20511;-87
2021/03/29 01:16:40;;;;;;;5.80;3.57;;;9.40;95.10;;;;;;5055870;28;20447;-87
2021/03/29 01:19:11;;;;;;;6.63;2.90;;;9.50;95.10;;;;;;5043201;28;20450;-86
2021/03/29 01:21:54;;;;;;;6.40;2.80;;;9.50;95.00;;;;;;5035305;28;20470;-87
2021/03/29 01:24:38;;;;;;;6.40;2.97;;;9.40;95.10;;;;;;5036218;28;20456;-87
2021/03/29 01:27:06;;;;;;;5.57;2.40;;;9.50;95.10;;;;;;5066601;28;20788;-86
2021/03/29 01:29:33;;;;;;;6.60;2.87;;;9.40;95.00;;;;;;5058057;28;20997;-85
2021/03/29 01:32:01;;;;;;;8.97;3.27;;;9.40;95.00;;;;;;5056859;28;20866;-86
2021/03/29 01:34:32;;;;;;;5.57;3.10;;;9.40;95.00;;;;;;5055627;28;20456;-86
2021/03/29 01:37:00;;;;;;;6.37;2.90;;;9.40;95.00;;;;;;5056517;28;20424;-87
2021/03/29 01:39:28;;;;;;;5.20;2.70;;;9.40;95.10;;;;;;5039722;28;20532;-87
2021/03/29 01:41:55;;;;;;;6.13;2.83;;;9.40;95.00;;;;;;5035700;28;20477;-87
2021/03/29 01:44:23;;;;;;;7.90;3.10;;;9.60;95.50;;;;;;5035738;28;20424;-85
2021/03/29 01:46:50;;;;;;;5.50;2.50;;;9.40;95.30;;;;;;5042423;28;20487;-87
2021/03/29 01:49:17;;;;;;;6.93;2.80;;;9.40;95.00;;;;;;5054880;28;20485;-87
2021/03/29 01:51:45;;;;;;;5.47;2.53;;;9.30;95.10;;;;;;5055830;28;20971;-83
2021/03/29 01:54:13;;;;;;;5.90;2.60;;;9.30;95.00;;;;;;5056221;28;20453;-86
2021/03/29 01:56:39;;;;;;;6.97;3.10;;;9.20;95.20;;;;;;5042833;28;20504;-86
2021/03/29 01:59:06;;;;;;;3.93;2.40;;;9.10;95.30;;;;;;5038534;28;20450;-87
2021/03/29 02:01:33;;;;;;;5.67;3.07;;;9.20;95.30;;;;;;5062531;28;20796;-85
2021/03/29 02:04:00;;;;;;;6.03;2.40;;;9.20;95.30;;;;;;5077848;28;20423;-85
2021/03/29 02:06:27;;;;;;;9.10;4.47;;;9.20;95.30;;;;;;5066633;28;20528;-85
2021/03/29 02:08:55;;;;;;;8.60;3.70;;;9.20;95.40;;;;;;5056828;28;20571;-86
2021/03/29 02:11:22;;;;;;;8.20;2.90;;;9.20;95.40;;;;;;5059977;28;20540;-84
2021/03/29 02:13:53;;;;;;;5.67;3.13;;;9.20;95.30;;;;;;5064320;28;20423;-86
2021/03/29 02:16:20;;;;;;;7.30;2.87;;;9.10;95.40;;;;;;5051173;28;20981;-86
2021/03/29 02:18:49;;;;;;;7.27;2.60;;;8.90;95.30;;;;;;5052744;28;20448;-87
2021/03/29 02:21:20;;;;;;;5.03;2.47;;;9.00;95.20;;;;;;5054697;28;20587;-87
2021/03/29 02:23:49;;;;;;;4.50;2.63;;;9.00;95.30;;;;;;5055716;28;21070;-87
2021/03/29 02:26:19;;;;;;;7.43;2.80;;;9.00;95.50;;;;;;5060777;28;20427;-86
2021/03/29 02:28:46;;;;;;;8.20;3.60;;;9.00;95.60;;;;;;5076075;28;20857;-86
2021/03/29 02:31:14;;;;;;;5.17;2.50;;;8.90;95.80;;;;;;5063744;28;20491;-86
2021/03/29 02:33:41;;;;;;;7.00;2.80;;;8.90;96.00;;;;;;5059937;28;20419;-87
2021/03/29 02:36:09;;;;;;;7.93;3.13;;;8.50;96.30;;;;;;5054657;28;20991;-86
2021/03/29 02:38:36;;;;;;;6.70;2.67;;;8.80;96.40;;;;;;5041068;28;20547;-86
2021/03/29 02:41:04;;;;;;;5.87;2.40;;;8.50;96.70;;;;;;5054122;28;20540;-87
2021/03/29 02:43:32;;;;;;;7.60;2.75;;;8.40;96.90;;;;;;5065476;28;20502;-86
2021/03/29 02:46:00;;;;;;;8.25;3.30;;;8.40;97.30;;;;;;5047593;28;20261;-85
2021/03/29 02:48:30;;;;;;;5.13;2.80;;;8.30;97.40;;;;;;5034950;28;20264;-85
2021/03/29 02:50:58;;;;;;;6.17;3.00;;;8.40;97.40;;;;;;5035678;28;20541;-87
2021/03/29 02:53:30;;;;;;;10.47;3.00;;;8.20;97.30;;;;;;5034946;28;20523;-85
2021/03/29 02:55:59;;;;;;;5.57;3.10;;;8.50;97.40;;;;;;5053326;28;20894;-85
2021/03/29 02:58:29;;;;;;;5.78;3.00;;;8.70;97.40;;;;;;5055770;28;20732;-85
2021/03/29 03:00:56;;;;;;;7.97;3.05;;;8.40;97.50;;;;;;5056651;28;20230;-87
2021/03/29 03:03:23;;;;;;;5.70;2.60;;;8.20;97.30;;;;;;5054106;28;20209;-86
2021/03/29 03:05:53;;;;;;;5.20;3.20;;;8.70;97.60;;;;;;5053487;28;20550;-86
2021/03/29 03:08:20;;;;;;;9.30;5.30;;;8.50;97.70;;;;;;5054089;28;20453;-86
2021/03/29 03:10:48;;;;;;;6.50;2.50;;;8.50;97.80;;;;;;5054647;28;20876;-85
2021/03/29 03:13:15;;;;;;;5.53;2.53;;;8.30;97.50;;;;;;5054570;28;20449;-86
2021/03/29 03:15:41;;;;;;;6.25;2.13;;;8.40;97.50;;;;;;5053061;28;20252;-85
2021/03/29 03:18:09;;;;;;;5.87;2.53;;;8.30;97.60;;;;;;5055998;28;20212;-86
2021/03/29 03:20:37;;;;;;;3.92;2.67;;;8.40;97.80;;;;;;5062353;28;20505;-85
2021/03/29 03:23:11;;;;;;;4.80;2.23;;;8.30;98.00;;;;;;5060044;28;20201;-85
2021/03/29 03:25:40;;;;;;;6.57;2.47;;;8.30;97.90;;;;;;5058888;28;20479;-86
2021/03/29 03:28:09;;;;;;;10.73;3.30;;;8.20;98.00;;;;;;5047631;28;20560;-86
2021/03/29 03:30:37;;;;;;;4.77;2.63;;;8.00;98.20;;;;;;5054478;28;20808;-86
2021/03/29 03:33:06;;;;;;;5.93;2.85;;;8.00;98.70;;;;;;5053826;28;20503;-85
2021/03/29 03:35:36;;;;;;;7.80;2.70;;;8.00;98.70;;;;;;5065287;28;20288;-86
2021/03/29 03:38:07;;;;;;;8.17;3.40;;;7.90;98.90;;;;;;5074526;28;20589;-86
2021/03/29 03:40:34;;;;;;;5.25;2.60;;;7.90;99.10;;;;;;5074510;28;20472;-87
2021/03/29 03:43:02;;;;;;;5.23;2.67;;;8.00;99.10;;;;;;5075221;28;20218;-86
2021/03/29 03:45:33;;;;;;;5.35;2.33;;;7.90;99.20;;;;;;5062355;28;20499;-86
2021/03/29 03:48:01;;;;;;;6.75;2.80;;;7.90;99.40;;;;;;5053189;28;20641;-85
2021/03/29 03:50:28;;;;;;;7.67;2.73;;;7.90;99.50;;;;;;5053003;28;20287;-84
2021/03/29 03:52:55;;;;;;;5.47;2.63;;;8.00;99.50;;;;;;5073337;28;20555;-86
2021/03/29 03:55:23;;;;;;;7.83;2.33;;;7.90;99.40;;;;;;5064545;28;20479;-86
2021/03/29 03:57:49;;;;;;;6.95;2.90;;;8.20;99.50;;;;;;5055810;28;20934;-86
2021/03/29 04:00:17;;;;;;;7.60;3.13;;;8.10;99.30;;;;;;5058215;28;20224;-86
2021/03/29 04:02:46;;;;;;;6.13;2.40;;;8.00;99.30;;;;;;5058508;28;20260;-86
2021/03/29 04:05:14;;;;;;;9.60;3.20;;;8.10;99.40;;;;;;5049895;28;20517;-86
2021/03/29 04:07:41;;;;;;;7.33;2.47;;;7.90;99.40;;;;;;5039223;28;20454;-85
2021/03/29 04:10:14;;;;;;;8.87;3.40;;;8.00;99.50;;;;;;5038929;28;20930;-85
2021/03/29 04:12:43;;;;;;;6.43;2.90;;;7.80;99.70;;;;;;5038627;28;20446;-85
2021/03/29 04:15:10;;;;;;;7.65;3.35;;;7.90;99.50;;;;;;5046258;28;20203;-86
2021/03/29 04:17:36;;;;;;;7.03;2.47;;;7.80;99.50;;;;;;5058395;28;20681;-86
2021/03/29 04:20:05;;;;;;;4.60;2.47;;;7.90;99.80;;;;;;5057649;28;20380;-86
2021/03/29 04:22:31;;;;;;;5.47;2.30;;;7.70;99.70;;;;;;5058375;28;20532;-86
2021/03/29 04:24:58;;;;;;;8.05;2.90;;;7.80;99.90;;;;;;5056879;28;20206;-86
2021/03/29 04:27:24;;;;;;;5.70;2.53;;;7.80;99.90;;;;;;5070587;28;20205;-86
2021/03/29 04:29:50;;;;;;;8.27;2.72;;;7.90;99.90;;;;;;5039032;28;20536;-86
2021/03/29 04:32:17;;;;;;;8.60;2.53;;;7.80;99.90;;;;;;5057807;28;20293;-86
2021/03/29 04:34:43;;;;;;;6.18;3.00;;;7.70;99.90;;;;;;5053285;28;20202;-85
2021/03/29 04:37:10;;;;;;;6.97;2.88;;;7.70;99.90;;;;;;5038391;28;20238;-86
2021/03/29 04:39:37;;;;;;;7.03;2.70;;;7.50;99.90;;;;;;5038214;28;20203;-86
2021/03/29 04:42:04;;;;;;;4.50;2.40;;;7.70;99.90;;;;;;5054346;28;20561;-86
2021/03/29 04:44:30;;;;;;;5.38;2.40;;;7.60;99.90;;;;;;5058371;28;20453;-85
2021/03/29 04:46:56;;;;;;;7.20;2.70;;;7.60;99.90;;;;;;5061666;28;20638;-86
2021/03/29 04:49:23;;;;;;;6.10;2.63;;;7.60;99.90;;;;;;5058022;28;20305;-86
2021/03/29 04:51:49;;;;;;;5.30;2.53;;;7.60;99.90;;;;;;5057584;28;20496;-86
2021/03/29 04:54:16;;;;;;;6.40;2.85;;;7.70;99.90;;;;;;5057804;28;20481;-86
2021/03/29 04:56:42;;;;;;;6.03;2.83;;;7.80;99.90;;;;;;5041067;28;20211;-85
2021/03/29 04:59:09;;;;;;;5.07;2.57;;;7.60;99.90;;;;;;5037316;28;20460;-85
2021/03/29 05:01:35;;;;;;;10.07;2.97;;;7.50;99.90;;;;;;5046840;28;20529;-84
2021/03/29 05:04:01;;;;;;;6.57;2.97;;;7.60;99.90;;;;;;5039951;28;20450;-85
2021/03/29 05:06:30;;;;;;;5.65;2.83;;;8.10;99.90;;;;;;5046069;28;20919;-85
2021/03/29 05:08:56;;;;;;;5.70;3.10;;;7.70;99.90;;;;;;5055231;28;20307;-85
2021/03/29 05:11:24;;;;;;;8.70;2.50;;;8.00;99.90;;;;;;5054856;28;20725;-85
2021/03/29 05:13:51;;;;;;;11.93;3.20;;;8.00;99.90;;;;;;5055176;28;20457;-85
2021/03/29 05:16:17;;;;;;;5.20;2.83;;;7.80;99.90;;;;;;5055362;28;20491;-85
2021/03/29 05:18:43;;;;;;;8.87;2.77;;;8.10;99.90;;;;;;5055637;28;20506;-85
2021/03/29 05:21:10;;;;;;;7.85;3.05;;;7.80;99.90;;;;;;5055890;28;20548;-86
2021/03/29 05:23:36;;;;;;;8.53;3.20;;;8.00;99.90;;;;;;5049938;28;20211;-87
2021/03/29 05:26:02;;;;;;;11.53;3.20;;;8.00;99.90;;;;;;5037594;28;20550;-87
2021/03/29 05:28:30;;;;;;;5.53;3.50;;;8.00;99.90;;;;;;5039325;28;20458;-86
2021/03/29 05:30:56;;;;;;;8.00;3.23;;;8.10;99.90;;;;;;5037957;28;20845;-86
2021/03/29 05:33:25;;;;;;;9.40;2.50;;;8.10;99.90;;;;;;5042832;28;20553;-85
2021/03/29 05:35:54;;;;;;;8.50;3.10;;;8.00;99.90;;;;;;5057997;28;20496;-84
2021/03/29 05:38:20;;;;;;;12.67;3.17;;;8.20;99.90;;;;;;5060347;28;20476;-85
2021/03/29 05:40:50;;;;;;;8.13;3.27;;;8.20;99.90;;;;;;5069939;28;20485;-83
2021/03/29 05:43:16;;;;;;;14.50;3.80;;;8.00;99.90;;;;;;5064065;28;20500;-83
2021/03/29 05:45:44;;;;;;;6.60;3.10;;;8.10;99.80;;;;;;5038490;28;20888;-85
2021/03/29 05:48:11;;;;;;;13.37;3.40;;;8.10;99.70;;;;;;5038965;28;20450;-85
2021/03/29 05:50:37;;;;;;;8.10;3.20;;;8.30;99.90;;;;;;5040864;28;20482;-84
2021/03/29 05:53:04;;;;;;;6.80;3.20;;;8.40;99.40;;;;;;5054562;28;20514;-83
2021/03/29 05:55:34;;;;;;;10.47;3.93;;;8.50;99.20;;;;;;5074513;28;20495;-83
2021/03/29 06:00:46;;;;;;;8.03;3.50;;;8.80;98.70;;;;;;5058611;28;20447;-84
2021/03/29 06:03:21;;;;;;;6.93;3.80;;;8.80;98.50;;;;;;5055033;28;20531;-84
2021/03/29 06:05:48;;;;;;;8.70;3.90;;;9.10;98.40;;;;;;5047146;28;20497;-85
2021/03/29 06:08:14;;;;;;;9.63;3.80;;;8.90;98.30;;;;;;5064282;28;20461;-84
2021/03/29 06:10:41;;;;;;;9.20;3.53;;;9.00;97.80;;;;;;5077045;28;20466;-84
2021/03/29 06:13:15;;;;;;;12.70;3.27;;;9.00;97.40;;;;;;5065794;28;20441;-85
2021/03/29 06:15:42;;;;;;;7.90;3.80;;;9.10;97.30;;;;;;5056376;28;20453;-85
2021/03/29 06:18:14;;;;;;;5.77;3.73;;;9.20;97.20;;;;;;5056693;28;20488;-85
2021/03/29 06:21:07;;;;;;;7.70;3.50;;;9.20;97.00;;;;;;5054489;28;20477;-85
2021/03/29 06:23:35;;;;;;;11.03;3.43;;;9.40;96.80;;;;;;5044573;28;20512;-84
2021/03/29 06:26:25;;;;;;;9.00;4.00;;;9.40;97.10;;;;;;5036894;28;20952;-86
2021/03/29 06:28:52;;;;;;;10.00;3.83;;;9.50;96.80;;;;;;5036057;28;20476;-85
2021/03/29 06:31:20;;;;;;;11.93;3.67;;;9.60;96.70;;;;;;5041818;28;20526;-83
2021/03/29 06:33:48;;;;;;;8.30;3.80;;;9.80;96.90;;;;;;5059677;28;20459;-86
2021/03/29 06:36:26;;;;;;;7.30;3.33;;;9.80;96.40;;;;;;5055611;28;20448;-85
2021/03/29 06:38:52;;;;;;;6.93;3.63;;;9.90;96.30;;;;;;5054858;28;20441;-86
2021/03/29 06:41:25;;;;;;;7.90;4.17;;;10.00;95.60;;;;;;5053372;28;20534;-87
2021/03/29 06:43:52;;;;;;;8.57;4.63;;;10.00;95.20;;;;;;5054772;28;20498;-86
2021/03/29 06:46:23;;;;;;;11.53;4.00;;;10.20;95.20;;;;;;5058267;28;20967;-84
2021/03/29 06:48:51;;;;;;;9.90;4.80;;;10.30;94.80;;;;;;5053990;28;20455;-85
2021/03/29 06:51:20;;;;;;;8.80;4.00;;;10.40;94.70;;;;;;5038456;28;20470;-85
2021/03/29 06:53:51;;;;;;;5.30;3.73;;;10.40;94.70;;;;;;5034214;28;20469;-86
2021/03/29 06:56:35;;;;;;;7.23;4.13;;;10.60;94.50;;;;;;5034212;28;20507;-85
2021/03/29 06:59:13;;;;;;;11.17;5.57;;;10.60;94.10;;;;;;5033401;28;20449;-84
2021/03/29 07:01:47;;;;;;;11.40;5.57;;;10.70;93.90;;;;;;5034356;28;20454;-85
2021/03/29 07:04:14;;;;;;;9.60;5.63;;;10.70;93.60;;;;;;5033689;28;20903;-85
2021/03/29 07:06:42;;;;;;;8.83;4.20;;;10.90;93.60;;;;;;5068827;28;21430;-85
2021/03/29 07:09:10;;;;;;;14.23;4.77;;;10.90;93.40;;;;;;5083762;28;20489;-86
2021/03/29 07:11:38;;;;;;;10.20;5.47;;;11.00;93.30;;;;;;5037980;28;21077;-87
2021/03/29 07:14:06;;;;;;;7.33;3.83;;;11.20;93.30;;;;;;5036418;28;20466;-86
2021/03/29 07:16:34;;;;;;;10.70;4.33;;;11.30;93.30;;;;;;5037109;28;20459;-87
2021/03/29 07:19:02;;;;;;;14.43;4.77;;;11.20;93.10;;;;;;5049957;28;20452;-85
2021/03/29 07:21:29;;;;;;;8.70;4.37;;;11.30;93.20;;;;;;5056773;28;20472;-85
2021/03/29 07:24:01;;;;;;;14.57;4.87;;;11.30;93.00;;;;;;5041013;28;20453;-85
2021/03/29 07:26:34;;;;;;;13.60;4.87;;;11.50;93.00;;;;;;5055849;28;20448;-83
2021/03/29 07:29:20;;;;;;;7.80;4.23;;;11.60;92.70;;;;;;5067816;28;20448;-86
2021/03/29 07:31:48;;;;;;;9.93;4.77;;;11.90;92.60;;;;;;5055518;28;20477;-86
2021/03/29 07:34:15;;;;;;;15.43;4.37;;;12.00;92.60;;;;;;5061667;28;20527;-86
2021/03/29 07:36:45;;;;;;;11.47;4.97;;;12.10;92.10;;;;;;5060312;28;20460;-85
2021/03/29 07:39:13;;;;;;;9.77;4.57;;;12.20;91.70;;;;;;5059305;28;20982;-85
2021/03/29 07:41:40;;;;;;;7.03;4.33;;;12.30;91.30;;;;;;5060865;28;20451;-86
2021/03/29 07:44:12;;;;;;;9.00;4.07;;;12.30;91.00;;;;;;5061610;28;20467;-86
2021/03/29 07:46:40;;;;;;;6.63;3.73;;;12.50;90.90;;;;;;5060953;28;20495;-86
2021/03/29 07:49:41;;;;;;;6.77;3.87;;;12.60;90.60;;;;;;5060126;28;20463;-85
2021/03/29 07:52:32;;;;;;;9.23;4.63;;;12.70;90.40;;;;;;5058812;28;20497;-86
2021/03/29 07:55:00;;;;;;;11.13;4.63;;;12.90;90.10;;;;;;5049034;28;20468;-85
2021/03/29 07:58:03;;;;;;;7.83;4.00;;;13.00;89.50;;;;;;5039734;28;20514;-86
2021/03/29 08:01:04;;;;;;;7.73;3.20;;;13.10;87.90;;;;;;5039804;28;20473;-86
2021/03/29 08:03:44;;;;;;;6.20;3.80;;;13.30;86.70;;;;;;5039976;28;20444;-84
2021/03/29 08:06:42;;;;;;;10.83;3.60;;;13.50;86.20;;;;;;5056430;28;20411;-87
2021/03/29 08:09:14;;;;;;;6.83;3.57;;;13.60;85.80;;;;;;5061879;28;20568;-86
2021/03/29 08:12:02;;;;;;;10.10;3.73;;;13.80;84.50;;;;;;5045467;28;20631;-86
2021/03/29 08:14:52;;;;;;;6.40;3.40;;;13.90;84.10;;;;;;5039539;28;20458;-86
2021/03/29 08:17:38;;;;;;;8.47;5.40;;;14.20;82.10;;;;;;5039723;28;20438;-85
2021/03/29 08:20:17;;;;;;;11.87;5.23;;;14.20;84.80;;;;;;5041357;28;20523;-86
2021/03/29 08:22:44;;;;;;;10.23;6.80;;;14.00;84.70;;;;;;5042013;28;20523;-87
2021/03/29 08:25:29;;;;;;;11.30;5.60;;;13.80;85.10;;;;;;5042065;28;20456;-85
2021/03/29 08:27:57;;;;;;;16.03;5.60;;;13.90;85.10;;;;;;5045483;28;20431;-87
2021/03/29 08:30:24;;;;;;;13.30;5.90;;;14.00;84.10;;;;;;5039199;28;20468;-86
2021/03/29 08:32:51;;;;;;;9.57;5.37;;;13.90;83.80;;;;;;5041853;28;20520;-84
2021/03/29 08:35:20;;;;;;;12.07;6.20;;;13.90;84.40;;;;;;5046648;28;20424;-86
2021/03/29 08:37:47;;;;;;;10.53;5.50;;;13.80;84.40;;;;;;5061011;28;20502;-85
2021/03/29 08:40:17;;;;;;;13.53;5.13;;;13.90;84.30;;;;;;5059556;28;20560;-85
2021/03/29 08:42:47;;;;;;;9.10;4.63;;;14.10;83.60;;;;;;5060106;28;20993;-87
2021/03/29 08:45:16;;;;;;;8.10;3.80;;;14.30;82.80;;;;;;5041568;28;20417;-85
2021/03/29 08:47:44;;;;;;;7.43;3.60;;;14.30;82.10;;;;;;5042191;28;20483;-82
2021/03/29 08:50:12;;;;;;;6.47;2.30;;;14.50;80.80;;;;;;5041111;28;20476;-85
2021/03/29 08:52:42;;;;;;;9.47;3.00;;;14.60;78.70;;;;;;5041766;28;20501;-86
2021/03/29 08:55:09;;;;;;;10.10;3.10;;;14.90;77.70;;;;;;5039938;28;20433;-84
2021/03/29 08:57:37;;;;;;;9.73;4.10;;;15.00;76.00;;;;;;5038989;28;20561;-86
2021/03/29 09:00:10;;;;;;;7.20;3.93;;;15.20;75.90;;;;;;5044063;28;20469;-84
2021/03/29 09:02:37;;;;;;;9.93;3.40;;;15.40;76.00;;;;;;5058616;28;20462;-85
2021/03/29 09:05:06;;;;;;;6.23;2.77;;;15.60;76.10;;;;;;5069741;28;20423;-82
2021/03/29 09:07:35;;;;;;;5.20;2.80;;;15.60;74.50;;;;;;5077053;28;20463;-83
2021/03/29 09:10:12;;;;;;;7.00;2.80;;;15.80;74.00;;;;;;5046773;28;20467;-85
2021/03/29 09:12:39;;;;;;;4.33;2.40;;;15.70;73.30;;;;;;5051390;28;20440;-84
2021/03/29 09:15:14;;;;;;;6.30;2.67;;;15.70;72.60;;;;;;5050375;28;20439;-83
2021/03/29 09:17:41;;;;;;;5.47;2.40;;;15.70;72.60;;;;;;5049386;28;20434;-83
2021/03/29 09:20:18;;;;;;;5.10;2.00;;;15.80;72.10;;;;;;5049151;28;20636;-84
2021/03/29 09:22:46;;;;;;;6.10;2.43;;;15.90;72.00;;;;;;5048444;28;20931;-82
2021/03/29 09:25:21;;;;;;;7.90;2.37;;;16.00;70.70;;;;;;5048569;28;20461;-84
2021/03/29 09:27:49;;;;;;;6.97;2.60;;;16.10;69.70;;;;;;5046940;28;20454;-85
2021/03/29 09:30:17;;;;;;;6.60;2.07;;;16.20;68.80;;;;;;5040360;28;20456;-83
2021/03/29 09:32:45;;;;;;;6.40;2.60;;;16.30;68.20;;;;;;5036439;28;20425;-86
2021/03/29 09:35:12;;;;;;;10.37;3.10;;;16.40;67.80;;;;;;5040969;28;20461;-84
2021/03/29 09:37:47;;;;;;;5.57;2.30;;;16.30;67.90;;;;;;5055725;28;20449;-84
2021/03/29 09:40:14;;;;;;;7.83;2.00;;;16.40;67.10;;;;;;5036705;28;20440;-84
2021/03/29 09:42:43;;;;;;;8.27;1.97;;;16.50;66.10;;;;;;5050810;28;20450;-85
2021/03/29 09:45:13;;;;;;;5.23;2.27;;;16.50;65.30;;;;;;5056146;28;20468;-85
2021/03/29 09:47:40;;;;;;;5.47;2.40;;;16.50;65.70;;;;;;5055605;28;20428;-86
2021/03/29 09:50:10;;;;;;;6.33;2.10;;;16.60;65.50;;;;;;5056811;28;20520;-80
2021/03/29 09:52:42;;;;;;;6.30;2.60;;;16.50;65.20;;;;;;5066571;28;20445;-83
2021/03/29 09:55:11;;;;;;;7.17;2.90;;;16.50;66.00;;;;;;5050861;28;20548;-84
2021/03/29 09:57:43;;;;;;;7.73;3.10;;;16.50;66.30;;;;;;5036860;28;20440;-85
2021/03/29 10:00:20;;;;;;;5.97;2.37;;;16.50;67.20;;;;;;5040376;28;20505;-85
2021/03/29 10:02:48;;;;;;;8.27;2.83;;;16.60;66.10;;;;;;5041972;28;20464;-84
2021/03/29 10:05:17;;;;;;;9.40;2.70;;;16.80;65.60;;;;;;5036136;28;20521;-84
2021/03/29 10:07:52;;;;;;;6.13;3.13;;;16.90;65.10;;;;;;5037689;28;20432;-83
2021/03/29 10:10:26;;;;;;;4.73;2.67;;;17.00;63.00;;;;;;5036762;28;20822;-85
2021/03/29 10:13:07;;;;;;;8.47;2.57;;;17.10;62.50;;;;;;5053228;28;20471;-85
2021/03/29 10:15:35;;;;;;;5.70;2.37;;;17.10;61.10;;;;;;5055738;28;20412;-85
2021/03/29 10:18:13;;;;;;;5.17;2.30;;;17.10;60.10;;;;;;5054440;28;20428;-83
2021/03/29 10:20:42;;;;;;;4.90;2.40;;;17.10;60.40;;;;;;5054248;28;20621;-85
2021/03/29 10:23:21;;;;;;;6.40;2.20;;;17.20;60.30;;;;;;5054670;28;20540;-83
2021/03/29 10:26:12;;;;;;;7.73;2.27;;;17.20;59.10;;;;;;5058650;28;20477;-85
2021/03/29 10:28:38;;;;;;;9.00;3.33;;;17.30;58.50;;;;;;5042410;28;20446;-86
2021/03/29 10:31:04;;;;;;;4.67;3.07;;;17.50;56.80;;;;;;5054316;28;20649;-84
2021/03/29 10:33:32;;;;;;;6.50;2.93;;;17.50;55.80;;;;;;5055862;28;20524;-85
2021/03/29 10:35:58;;;;;;;5.80;2.63;;;17.60;55.60;;;;;;5055917;28;20467;-85
2021/03/29 10:38:24;;;;;;;7.60;3.10;;;17.50;54.80;;;;;;5053621;28;20561;-85
2021/03/29 10:40:51;;;;;;;4.30;1.83;;;17.60;56.60;;;;;;5056391;28;20487;-83
2021/03/29 10:43:17;;;;;;;5.03;2.33;;;17.70;53.90;;;;;;5058517;28;20452;-82
2021/03/29 10:45:43;;;;;;;5.50;2.47;;;17.80;52.70;;;;;;5054172;28;20459;-84
2021/03/29 10:48:10;;;;;;;8.83;2.63;;;17.90;52.60;;;;;;5040071;28;20450;-84
2021/03/29 10:50:37;;;;;;;7.83;3.30;;;17.90;54.40;;;;;;5039849;28;20577;-83
2021/03/29 10:53:04;;;;;;;6.10;3.07;;;17.70;61.10;;;;;;5039214;28;20454;-84
2021/03/29 10:55:31;;;;;;;9.63;2.93;;;17.60;61.10;;;;;;5041239;28;20477;-84
2021/03/29 10:57:57;;;;;;;5.77;2.97;;;17.60;60.00;;;;;;5039211;28;20430;-85
2021/03/29 11:00:25;;;;;;;10.03;2.73;;;17.70;57.70;;;;;;5045365;28;20870;-82
2021/03/29 11:02:52;;;;;;;6.43;2.70;;;17.70;57.40;;;;;;5074605;28;20451;-84
2021/03/29 11:05:19;;;;;;;9.10;2.40;;;17.90;55.80;;;;;;5079056;28;20439;-82
2021/03/29 11:07:46;;;;;;;5.20;1.90;;;17.90;55.50;;;;;;5078416;28;20478;-84
2021/03/29 11:10:13;;;;;;;7.30;2.53;;;18.00;52.40;;;;;;5077790;28;20545;-83
2021/03/29 11:12:40;;;;;;;4.73;2.10;;;18.10;51.70;;;;;;5078304;28;20451;-84
2021/03/29 11:15:07;;;;;;;5.30;2.33;;;18.20;51.40;;;;;;5079039;28;20458;-82
2021/03/29 11:17:36;;;;;;;6.37;2.70;;;18.20;51.10;;;;;;5070703;28;20464;-84
2021/03/29 11:20:03;;;;;;;10.20;2.40;;;18.40;50.90;;;;;;5057718;28;20488;-84
2021/03/29 11:22:30;;;;;;;4.50;2.40;;;18.30;50.30;;;;;;5058451;28;20642;-82
2021/03/29 11:24:57;;;;;;;5.77;2.67;;;18.40;51.00;;;;;;5059987;28;20520;-83
2021/03/29 11:27:24;;;;;;;32.53;6.97;;;18.30;50.80;;;;;;5058442;28;20495;-86
2021/03/29 11:29:51;;;;;;;5.73;2.40;;;18.40;50.80;;;;;;5056988;28;20591;-83
2021/03/29 11:32:17;;;;;;;10.20;2.60;;;18.50;50.20;;;;;;5057521;28;20474;-83
2021/03/29 11:34:44;;;;;;;5.83;2.30;;;18.50;50.10;;;;;;5057702;28;20488;-84
2021/03/29 11:37:13;;;;;;;5.80;2.10;;;18.60;49.70;;;;;;5057189;28;20786;-84
2021/03/29 11:39:39;;;;;;;4.93;2.20;;;18.70;49.30;;;;;;5057655;28;20465;-83
2021/03/29 11:42:07;;;;;;;8.30;2.67;;;18.70;49.00;;;;;;5058296;28;20475;-85
2021/03/29 11:44:33;;;;;;;4.40;1.90;;;18.80;48.80;;;;;;5058099;28;20484;-84
2021/03/29 11:47:00;;;;;;;7.77;2.40;;;18.70;48.90;;;;;;5058507;28;20457;-84
2021/03/29 11:49:26;;;;;;;11.07;2.77;;;18.70;49.00;;;;;;5054229;28;20900;-82
2021/03/29 11:51:52;;;;;;;5.73;2.90;;;18.70;48.80;;;;;;5037899;28;20425;-81
2021/03/29 11:54:19;;;;;;;6.63;2.50;;;18.90;49.10;;;;;;5040086;28;20523;-84
2021/03/29 11:56:45;;;;;;;4.87;2.13;;;18.90;48.80;;;;;;5039686;28;20908;-84
2021/03/29 11:59:13;;;;;;;5.27;2.10;;;19.00;48.30;;;;;;5057411;28;20465;-83
2021/03/29 12:01:44;;;;;;;5.57;2.43;;;19.00;48.00;;;;;;5057944;28;20468;-84
2021/03/29 12:04:14;;;;;;;6.07;2.77;;;19.20;48.10;;;;;;5058229;28;20460;-83
2021/03/29 12:06:45;;;;;;;7.50;2.93;;;19.20;48.80;;;;;;5049514;28;20821;-83
2021/03/29 12:09:17;;;;;;;5.07;2.47;;;19.20;50.90;;;;;;5039322;28;20792;-83
2021/03/29 12:11:58;;;;;;;5.67;2.00;;;19.20;48.90;;;;;;5037300;28;20476;-83
2021/03/29 12:14:28;;;;;;;5.73;2.20;;;19.20;48.50;;;;;;5039398;28;20473;-83
2021/03/29 12:16:54;;;;;;;6.50;2.23;;;19.30;48.70;;;;;;5038220;28;20437;-83
2021/03/29 12:19:21;;;;;;;5.87;2.30;;;19.40;48.50;;;;;;5040477;28;20640;-83
2021/03/29 12:21:50;;;;;;;4.17;2.10;;;19.40;48.20;;;;;;5041438;28;20486;-83
2021/03/29 12:24:21;;;;;;;4.70;2.20;;;19.40;48.10;;;;;;5044181;28;20488;-82
2021/03/29 12:26:49;;;;;;;7.30;2.80;;;19.40;48.20;;;;;;5071365;28;20456;-80
2021/03/29 12:29:17;;;;;;;5.50;2.30;;;19.30;48.20;;;;;;5072592;28;20449;-84
2021/03/29 12:31:46;;;;;;;4.47;2.20;;;19.30;48.20;;;;;;5057742;28;20517;-84
2021/03/29 12:34:13;;;;;;;5.67;2.00;;;19.30;47.80;;;;;;5041671;28;20467;-83
2021/03/29 12:36:43;;;;;;;6.10;2.20;;;19.30;47.90;;;;;;5040338;28;20493;-83
2021/03/29 12:39:14;;;;;;;4.93;2.40;;;19.30;47.60;;;;;;5043335;28;20446;-83
2021/03/29 12:41:42;;;;;;;9.67;2.63;;;19.40;47.50;;;;;;5047761;28;20460;-82
2021/03/29 12:44:13;;;;;;;4.23;1.90;;;19.50;47.30;;;;;;5056357;28;20437;-81
2021/03/29 12:46:40;;;;;;;5.63;2.53;;;19.50;47.50;;;;;;5044100;28;20450;-83
2021/03/29 12:49:12;;;;;;;6.57;4.07;;;19.60;47.00;;;;;;5046454;28;20456;-82
2021/03/29 12:51:39;;;;;;;9.80;2.90;;;19.70;47.30;;;;;;5044805;28;20464;-83
2021/03/29 12:54:10;;;;;;;6.30;2.03;;;19.60;47.20;;;;;;5054128;28;20546;-82
2021/03/29 12:56:36;;;;;;;6.67;2.57;;;19.60;46.90;;;;;;5054374;28;20515;-84
2021/03/29 12:59:04;;;;;;;5.97;2.17;;;19.60;47.20;;;;;;5042566;28;20458;-84
2021/03/29 13:01:32;;;;;;;5.53;2.30;;;19.70;47.30;;;;;;5050633;28;20551;-84
2021/03/29 13:04:01;;;;;;;4.73;2.17;;;19.70;47.30;;;;;;5066419;28;20463;-83